Time;durP1;ratioP1;P1;durP2;ratioP2;P2;SDS_P1;SDS_P2;PMS_P1;PMS_P2;Temp;Humidity;BMP_temperature;BMP_pressure;BME280_temperature;BME280_humidity;BME280_pressure;Samples;Min_cycle;Max_cycle;Signal;HPM_P1;HPM_P2
2023/09/06 14:09:58;;;;;;;3.47;1.27;;;;;;;;;;5098902;22;26527529;-78
2023/09/06 14:12:30;;;;;;;4.57;1.40;;;;;;;;;;6220591;23;20237;-79
2023/09/06 14:14:58;;;;;;;3.90;1.80;;;;;;;;;;6227630;23;20835;-77
2023/09/06 14:17:26;;;;;;;5.03;1.67;;;;;;;;;;6226977;23;20410;-79
2023/09/06 14:19:54;;;;;;;4.20;1.57;;;;;;;;;;6223080;23;20829;-79
2023/09/06 14:22:21;;;;;;;4.67;1.50;;;;;;;;;;6232057;23;20429;-80
2023/09/06 14:24:49;;;;;;;4.47;2.17;;;;;;;;;;6227008;23;20724;-80
2023/09/06 14:27:19;;;;;;;3.57;2.03;;;;;;;;;;6227332;23;20421;-79
2023/09/06 14:29:47;;;;;;;4.20;1.40;;;;;;;;;;6227978;23;20437;-77
2023/09/06 14:32:14;;;;;;;4.43;1.50;;;;;;;;;;6225371;23;20452;-80
2023/09/06 14:34:49;;;;;;;3.73;1.43;;;;;;;;;;6223256;23;20417;-82
2023/09/06 14:37:19;;;;;;;9.63;6.87;;;;;;;;;;6223561;23;20420;-80
2023/09/06 14:39:52;;;;;;;5.40;3.40;;;;;;;;;;6221373;23;20422;-79
2023/09/06 14:42:32;;;;;;;4.33;1.87;;;;;;;;;;6228611;23;20429;-79
2023/09/06 14:45:11;;;;;;;5.30;1.93;;;;;;;;;;6226124;23;20410;-80
2023/09/06 14:47:56;;;;;;;7.50;2.00;;;;;;;;;;6230006;23;21046;-77
2023/09/06 14:50:37;;;;;;;5.40;2.00;;;;;;;;;;6230233;23;20390;-81
2023/09/06 14:53:11;;;;;;;5.20;1.50;;;;;;;;;;6228160;23;20442;-78
2023/09/06 14:55:41;;;;;;;6.40;2.10;;;;;;;;;;6229222;23;20563;-78
2023/09/06 14:58:11;;;;;;;4.57;1.90;;;;;;;;;;6223415;23;20428;-79
2023/09/06 15:00:38;;;;;;;4.27;1.57;;;;;;;;;;6227437;23;20536;-78
2023/09/06 15:03:06;;;;;;;6.10;1.83;;;;;;;;;;6222280;23;20414;-79
2023/09/06 15:05:35;;;;;;;7.83;1.53;;;;;;;;;;6227160;23;20468;-79
2023/09/06 15:16:15;;;;;;;4.80;2.53;;;;;;;;;;6252124;22;21128;-79
2023/09/06 15:18:44;;;;;;;5.47;1.90;;;;;;;;;;6253873;23;20426;-79
2023/09/06 15:21:39;;;;;;;4.27;1.60;;;;;;;;;;6257713;23;20413;-78
2023/09/06 15:24:07;;;;;;;4.00;1.90;;;;;;;;;;6274337;22;20527;-77
2023/09/06 15:26:36;;;;;;;3.97;1.57;;;;;;;;;;6288372;22;20418;-79
2023/09/06 15:29:05;;;;;;;5.53;2.10;;;;;;;;;;6290596;22;20400;-79
2023/09/06 15:31:34;;;;;;;4.00;1.60;;;;;;;;;;6291278;22;20491;-79
2023/09/06 15:34:03;;;;;;;4.80;2.20;;;;;;;;;;6286855;22;20380;-80
2023/09/06 15:36:31;;;;;;;4.93;2.00;;;;;;;;;;6287753;22;20451;-77
2023/09/06 15:38:59;;;;;;;6.20;1.87;;;;;;;;;;6287424;22;20469;-79
2023/09/06 15:41:31;;;;;;;4.70;2.27;;;;;;;;;;6288180;22;20408;-79
2023/09/06 15:44:04;;;;;;;4.67;2.73;;;;;;;;;;6286811;22;20412;-78
2023/09/06 15:46:34;;;;;;;4.47;2.00;;;;;;;;;;6262841;22;20412;-79
2023/09/06 15:49:02;;;;;;;4.47;1.83;;;;;;;;;;6289833;22;20381;-79
2023/09/06 15:51:31;;;;;;;3.77;2.00;;;;;;;;;;6287584;22;20422;-78
2023/09/06 15:54:00;;;;;;;9.00;5.27;;;;;;;;;;6288834;22;20427;-79
2023/09/06 15:56:30;;;;;;;4.87;3.03;;;;;;;;;;6285895;22;20556;-77
2023/09/06 15:59:08;;;;;;;5.87;2.37;;;;;;;;;;6286849;22;20411;-79
2023/09/06 16:01:37;;;;;;;8.67;4.30;;;;;;;;;;6288606;22;20409;-78
2023/09/06 16:04:05;;;;;;;8.03;3.37;;;;;;;;;;6287283;22;20389;-79
2023/09/06 16:06:34;;;;;;;5.00;2.47;;;;;;;;;;6286917;22;20413;-79
2023/09/06 16:09:03;;;;;;;6.10;2.40;;;;;;;;;;6285483;22;20404;-78
2023/09/06 16:11:33;;;;;;;5.40;2.27;;;;;;;;;;6284000;22;20414;-81
2023/09/06 16:14:08;;;;;;;4.27;2.13;;;;;;;;;;6285452;22;20486;-78
2023/09/06 16:16:38;;;;;;;5.60;2.63;;;;;;;;;;6284862;22;20392;-79
2023/09/06 16:19:11;;;;;;;5.20;2.20;;;;;;;;;;6283599;22;20419;-80
2023/09/06 16:21:42;;;;;;;5.37;2.70;;;;;;;;;;6285643;22;20413;-79
2023/09/06 16:24:11;;;;;;;6.80;2.13;;;;;;;;;;6286974;22;20435;-80
2023/09/06 16:26:40;;;;;;;4.87;2.27;;;;;;;;;;6283482;22;20424;-79
2023/09/06 16:29:11;;;;;;;6.57;2.90;;;;;;;;;;6288162;22;20412;-79
2023/09/06 16:31:49;;;;;;;4.73;3.40;;;;;;;;;;6288972;22;20385;-79
2023/09/06 16:34:24;;;;;;;5.30;2.27;;;;;;;;;;6288672;22;20420;-78
2023/09/06 16:36:55;;;;;;;5.97;2.83;;;;;;;;;;6288496;22;20400;-80
2023/09/06 16:39:23;;;;;;;4.40;2.07;;;;;;;;;;6287657;22;20434;-78
2023/09/06 16:41:51;;;;;;;5.10;2.50;;;;;;;;;;6283839;22;20439;-79
2023/09/06 16:44:19;;;;;;;4.73;1.80;;;;;;;;;;6288737;22;20765;-79
2023/09/06 16:47:00;;;;;;;4.53;2.43;;;;;;;;;;6287701;22;20516;-78
2023/09/06 16:49:28;;;;;;;4.60;1.90;;;;;;;;;;6285042;22;20473;-79
2023/09/06 16:51:55;;;;;;;6.40;2.10;;;;;;;;;;6293930;22;20444;-79
2023/09/06 16:54:23;;;;;;;4.33;1.87;;;;;;;;;;6288040;22;20411;-78
2023/09/06 16:56:50;;;;;;;4.60;2.90;;;;;;;;;;6281783;22;20503;-80
2023/09/06 16:59:18;;;;;;;5.27;1.83;;;;;;;;;;6283195;22;20399;-79
2023/09/06 17:01:48;;;;;;;5.20;2.20;;;;;;;;;;6283489;22;20587;-78
2023/09/06 17:04:19;;;;;;;4.50;2.23;;;;;;;;;;6282658;22;20413;-79
2023/09/06 17:06:47;;;;;;;5.17;2.30;;;;;;;;;;6288331;22;20873;-80
2023/09/06 17:09:15;;;;;;;9.00;2.10;;;;;;;;;;6284218;22;20416;-79
2023/09/06 17:11:44;;;;;;;4.30;2.20;;;;;;;;;;6286288;22;20412;-81
2023/09/06 17:14:13;;;;;;;4.03;1.97;;;;;;;;;;6287498;22;20389;-77
2023/09/06 17:16:51;;;;;;;5.57;3.30;;;;;;;;;;6285978;22;20606;-80
2023/09/06 17:19:23;;;;;;;5.60;2.77;;;;;;;;;;6286038;22;20803;-77
2023/09/06 17:27:29;;;;;;;4.10;1.97;;;;;;;;;;6284819;22;20443;-80
2023/09/06 17:29:58;;;;;;;4.43;2.13;;;;;;;;;;6284466;22;20423;-80
2023/09/06 17:32:27;;;;;;;5.77;2.23;;;;;;;;;;6286970;22;20470;-80
2023/09/06 17:34:59;;;;;;;6.37;2.80;;;;;;;;;;6285015;22;20480;-77
2023/09/06 17:37:31;;;;;;;5.93;2.90;;;;;;;;;;6287360;22;20560;-79
2023/09/06 17:39:59;;;;;;;4.60;2.10;;;;;;;;;;6290417;22;20417;-79
2023/09/06 17:42:27;;;;;;;5.17;2.10;;;;;;;;;;6281084;22;20418;-78
2023/09/06 17:44:58;;;;;;;6.73;2.23;;;;;;;;;;6286674;22;20841;-79
2023/09/06 17:47:27;;;;;;;10.47;3.50;;;;;;;;;;6282084;22;20416;-79
2023/09/06 17:49:55;;;;;;;6.17;2.13;;;;;;;;;;6282921;22;20397;-77
2023/09/06 17:52:23;;;;;;;6.23;3.40;;;;;;;;;;6286071;22;20409;-79
2023/09/06 17:54:53;;;;;;;7.50;3.07;;;;;;;;;;6284439;22;20373;-79
2023/09/06 17:57:21;;;;;;;6.30;2.70;;;;;;;;;;6289806;22;20419;-80
2023/09/06 18:00:03;;;;;;;7.90;4.40;;;;;;;;;;6290531;22;20475;-78
2023/09/06 18:02:32;;;;;;;12.87;9.83;;;;;;;;;;6290127;22;20399;-78
2023/09/06 18:05:01;;;;;;;10.80;5.30;;;;;;;;;;6288041;22;20827;-78
2023/09/06 18:07:31;;;;;;;9.30;3.50;;;;;;;;;;6291094;22;20388;-80
2023/09/06 18:09:59;;;;;;;6.20;3.37;;;;;;;;;;6287426;22;20389;-80
2023/09/06 18:12:27;;;;;;;8.67;3.70;;;;;;;;;;6289557;22;20512;-78
2023/09/06 18:14:56;;;;;;;10.10;3.37;;;;;;;;;;6286788;22;20396;-77
2023/09/06 18:17:23;;;;;;;5.67;3.03;;;;;;;;;;6290829;22;20485;-77
2023/09/06 18:19:51;;;;;;;11.13;3.93;;;;;;;;;;6292283;22;20408;-79
2023/09/06 18:22:20;;;;;;;5.30;2.70;;;;;;;;;;6291088;22;21246;-79
2023/09/06 18:24:50;;;;;;;6.67;3.43;;;;;;;;;;6291322;22;20881;-77
2023/09/06 18:27:18;;;;;;;7.50;3.40;;;;;;;;;;6285989;22;20454;-78
2023/09/06 18:29:46;;;;;;;7.20;3.00;;;;;;;;;;6287080;22;20451;-79
2023/09/06 18:32:13;;;;;;;6.80;3.80;;;;;;;;;;6285099;22;20448;-80
2023/09/06 18:34:41;;;;;;;8.10;3.80;;;;;;;;;;6288178;22;20388;-78
2023/09/06 18:37:09;;;;;;;6.87;3.47;;;;;;;;;;6287522;22;20400;-78
2023/09/06 18:39:39;;;;;;;12.00;3.77;;;;;;;;;;6290552;22;20412;-80
2023/09/06 18:42:09;;;;;;;9.20;3.60;;;;;;;;;;6289122;22;20416;-79
2023/09/06 18:44:41;;;;;;;7.50;3.27;;;;;;;;;;6288095;22;20420;-78
2023/09/06 18:47:09;;;;;;;6.23;3.57;;;;;;;;;;6289124;22;20412;-77
2023/09/06 18:49:39;;;;;;;7.03;3.40;;;;;;;;;;6291692;22;20403;-77
2023/09/06 18:52:07;;;;;;;6.05;3.20;;;;;;;;;;6283319;22;20389;-77
2023/09/06 18:54:36;;;;;;;7.43;3.67;;;;;;;;;;6288472;22;20812;-78
2023/09/06 18:57:05;;;;;;;6.33;3.53;;;;;;;;;;6285116;22;20499;-78
2023/09/06 18:59:36;;;;;;;8.13;3.10;;;;;;;;;;6291361;22;20415;-80
2023/09/06 19:02:04;;;;;;;8.97;5.33;;;;;;;;;;6286058;22;20481;-78
2023/09/06 19:04:34;;;;;;;7.20;3.97;;;;;;;;;;6289791;22;20385;-78
2023/09/06 19:07:02;;;;;;;9.97;4.83;;;;;;;;;;6285866;22;20392;-80
2023/09/06 19:09:32;;;;;;;7.80;3.30;;;;;;;;;;6287721;22;20420;-79
2023/09/06 19:12:00;;;;;;;7.77;3.80;;;;;;;;;;6288376;22;20931;-78
2023/09/06 19:14:30;;;;;;;8.47;3.97;;;;;;;;;;6282584;22;20443;-78
2023/09/06 19:16:59;;;;;;;6.57;3.70;;;;;;;;;;6293959;22;20416;-79
2023/09/06 19:19:32;;;;;;;9.17;4.37;;;;;;;;;;6284513;22;20393;-78
2023/09/06 19:22:00;;;;;;;6.80;4.83;;;;;;;;;;6285526;22;20417;-77
2023/09/06 19:24:28;;;;;;;10.63;4.73;;;;;;;;;;6285999;22;20428;-77
2023/09/06 19:27:05;;;;;;;7.70;4.70;;;;;;;;;;6285291;22;20439;-77
2023/09/06 19:29:35;;;;;;;7.87;5.20;;;;;;;;;;6286220;22;20471;-78
2023/09/06 19:32:02;;;;;;;7.43;5.23;;;;;;;;;;6283572;22;20442;-77
2023/09/06 19:34:30;;;;;;;10.23;5.23;;;;;;;;;;6290374;22;20816;-79
2023/09/06 19:36:58;;;;;;;8.90;5.80;;;;;;;;;;6282565;22;20385;-79
2023/09/06 19:39:26;;;;;;;8.07;6.40;;;;;;;;;;6283207;22;20420;-79
2023/09/06 19:41:56;;;;;;;8.73;5.90;;;;;;;;;;6289233;22;20426;-77
2023/09/06 19:44:24;;;;;;;9.13;6.80;;;;;;;;;;6281218;22;20434;-77
2023/09/06 19:46:55;;;;;;;9.80;5.60;;;;;;;;;;6286279;22;20408;-78
2023/09/06 19:49:23;;;;;;;9.03;5.10;;;;;;;;;;6283080;22;20501;-77
2023/09/06 19:51:50;;;;;;;8.40;6.10;;;;;;;;;;6285198;22;20388;-78
2023/09/06 19:54:19;;;;;;;9.07;5.87;;;;;;;;;;6282959;22;20444;-80
2023/09/06 19:56:47;;;;;;;11.60;6.30;;;;;;;;;;6289685;22;20408;-79
2023/09/06 19:59:18;;;;;;;9.40;6.77;;;;;;;;;;6287295;22;20451;-79
2023/09/06 20:01:46;;;;;;;9.20;6.53;;;;;;;;;;6282758;22;20423;-78
2023/09/06 20:04:15;;;;;;;6.77;5.07;;;;;;;;;;6281997;22;20390;-79
2023/09/06 20:06:42;;;;;;;7.70;6.27;;;;;;;;;;6284910;22;20455;-79
2023/09/06 20:09:11;;;;;;;8.40;6.80;;;;;;;;;;6284524;22;20503;-80
2023/09/06 20:11:38;;;;;;;8.83;6.10;;;;;;;;;;6286806;22;20518;-78
2023/09/06 20:14:08;;;;;;;9.87;6.63;;;;;;;;;;6284800;22;20475;-80
2023/09/06 20:16:35;;;;;;;12.73;6.87;;;;;;;;;;6285624;22;20399;-79
2023/09/06 20:19:04;;;;;;;12.87;7.80;;;;;;;;;;6285962;22;20638;-80
2023/09/06 20:21:33;;;;;;;10.00;7.30;;;;;;;;;;6287467;22;20416;-79
2023/09/06 20:24:00;;;;;;;9.53;6.67;;;;;;;;;;6290997;22;20411;-78
2023/09/06 20:26:28;;;;;;;8.03;6.43;;;;;;;;;;6288236;22;20436;-79
2023/09/06 20:28:58;;;;;;;10.73;6.67;;;;;;;;;;6289463;22;20451;-79
2023/09/06 20:31:26;;;;;;;10.87;7.20;;;;;;;;;;6291943;22;20395;-78
2023/09/06 20:33:54;;;;;;;9.40;7.30;;;;;;;;;;6291193;22;20493;-81
2023/09/06 20:36:21;;;;;;;10.93;6.77;;;;;;;;;;6292741;22;20454;-80
2023/09/06 20:38:50;;;;;;;9.27;6.90;;;;;;;;;;6296688;22;20396;-79
2023/09/06 20:41:18;;;;;;;8.83;6.60;;;;;;;;;;6291993;22;20877;-81
2023/09/06 20:43:45;;;;;;;8.90;7.27;;;;;;;;;;6294644;22;20499;-80
2023/09/06 20:46:13;;;;;;;11.13;7.40;;;;;;;;;;6292707;22;20407;-81
2023/09/06 20:48:44;;;;;;;9.77;6.90;;;;;;;;;;6290498;22;20526;-79
2023/09/06 20:51:13;;;;;;;8.90;6.40;;;;;;;;;;6293153;22;20432;-80
2023/09/06 20:53:43;;;;;;;11.50;7.90;;;;;;;;;;6287401;22;20565;-79
2023/09/06 20:56:12;;;;;;;9.67;7.33;;;;;;;;;;6289835;22;20413;-80
2023/09/06 20:58:39;;;;;;;9.57;6.40;;;;;;;;;;6290015;22;20415;-80
2023/09/06 21:01:18;;;;;;;8.40;6.20;;;;;;;;;;6289947;22;20381;-80
2023/09/06 21:03:45;;;;;;;8.30;5.57;;;;;;;;;;6292817;22;20471;-79
2023/09/06 21:06:13;;;;;;;8.30;6.10;;;;;;;;;;6291201;22;20412;-80
2023/09/06 21:11:46;;;;;;;8.93;6.60;;;;;;;;;;6289895;22;20390;-79
2023/09/06 21:14:15;;;;;;;6.47;4.87;;;;;;;;;;6285511;22;20488;-80
2023/09/06 21:16:43;;;;;;;7.77;5.50;;;;;;;;;;6287640;22;20530;-79
2023/09/06 21:19:11;;;;;;;6.80;5.07;;;;;;;;;;6293094;22;20800;-80
2023/09/06 21:21:43;;;;;;;6.63;5.50;;;;;;;;;;6289782;22;20484;-79
2023/09/06 21:24:10;;;;;;;8.70;4.93;;;;;;;;;;6293543;22;20483;-81
2023/09/06 21:26:39;;;;;;;7.33;5.10;;;;;;;;;;6294790;22;20422;-79
2023/09/06 21:29:08;;;;;;;7.90;4.40;;;;;;;;;;6291063;22;20442;-80
2023/09/06 21:31:35;;;;;;;6.73;4.83;;;;;;;;;;6288860;22;20469;-81
2023/09/06 21:34:03;;;;;;;5.67;3.77;;;;;;;;;;6289716;22;20442;-79
2023/09/06 21:36:31;;;;;;;7.90;4.90;;;;;;;;;;6292248;22;20415;-81
2023/09/06 21:38:58;;;;;;;7.63;5.03;;;;;;;;;;6292162;22;20483;-79
2023/09/06 21:41:25;;;;;;;8.00;4.20;;;;;;;;;;6288298;22;20405;-80
2023/09/06 21:43:53;;;;;;;6.37;4.17;;;;;;;;;;6287855;22;20420;-81
2023/09/06 21:46:22;;;;;;;11.33;5.07;;;;;;;;;;6289047;22;20451;-80
2023/09/06 21:48:49;;;;;;;6.07;4.30;;;;;;;;;;6290793;22;20435;-80
2023/09/06 21:51:17;;;;;;;7.03;4.77;;;;;;;;;;6289846;22;20393;-80
2023/09/06 21:53:45;;;;;;;5.90;3.80;;;;;;;;;;6290834;22;20454;-79
2023/09/06 21:56:13;;;;;;;9.83;4.33;;;;;;;;;;6287170;22;20412;-80
2023/09/06 21:58:41;;;;;;;8.43;4.20;;;;;;;;;;6290609;22;20417;-79
2023/09/06 22:01:09;;;;;;;5.30;3.67;;;;;;;;;;6291950;22;20412;-80
2023/09/06 22:03:38;;;;;;;10.90;4.10;;;;;;;;;;6291640;22;20499;-78
2023/09/06 22:06:06;;;;;;;5.80;3.50;;;;;;;;;;6292838;22;20389;-80
2023/09/06 22:08:34;;;;;;;5.00;3.77;;;;;;;;;;6291414;22;20416;-81
2023/09/06 22:11:03;;;;;;;6.47;3.77;;;;;;;;;;6294778;22;20494;-78
2023/09/06 22:13:30;;;;;;;7.90;4.00;;;;;;;;;;6291502;22;20444;-80
2023/09/06 22:15:58;;;;;;;5.70;4.47;;;;;;;;;;6290038;22;20434;-80
2023/09/06 22:18:25;;;;;;;7.03;3.30;;;;;;;;;;6291442;22;20389;-78
2023/09/06 22:20:54;;;;;;;4.60;3.50;;;;;;;;;;6291336;22;20384;-80
2023/09/06 22:23:22;;;;;;;5.70;3.83;;;;;;;;;;6286638;22;20408;-81
2023/09/06 22:25:58;;;;;;;7.90;6.10;;;;;;;;;;6284876;22;20431;-80
2023/09/06 22:28:27;;;;;;;11.80;5.97;;;;;;;;;;6291278;22;20416;-80
2023/09/06 22:30:55;;;;;;;7.60;5.40;;;;;;;;;;6290885;22;20427;-81
2023/09/06 22:33:22;;;;;;;10.17;5.70;;;;;;;;;;6290617;22;20375;-79
2023/09/06 22:35:49;;;;;;;8.80;5.83;;;;;;;;;;6289676;22;20393;-80
2023/09/06 22:38:18;;;;;;;9.73;6.00;;;;;;;;;;6292582;22;20420;-80
2023/09/06 22:40:46;;;;;;;10.00;6.33;;;;;;;;;;6290751;22;20434;-80
2023/09/06 22:43:13;;;;;;;11.10;5.90;;;;;;;;;;6292325;22;20409;-80
2023/09/06 22:45:41;;;;;;;9.03;6.00;;;;;;;;;;6290448;22;20510;-81
2023/09/06 22:48:09;;;;;;;9.30;5.40;;;;;;;;;;6291514;22;20400;-80
2023/09/06 22:50:36;;;;;;;10.87;5.70;;;;;;;;;;6292017;22;20414;-80
2023/09/06 22:53:04;;;;;;;7.00;5.13;;;;;;;;;;6290559;22;20420;-80
2023/09/06 22:55:33;;;;;;;9.83;5.37;;;;;;;;;;6289005;22;20444;-80
2023/09/06 22:58:00;;;;;;;7.20;5.30;;;;;;;;;;6288294;22;20419;-79
2023/09/06 23:00:28;;;;;;;10.13;5.30;;;;;;;;;;6288662;22;20695;-79
2023/09/06 23:02:56;;;;;;;6.73;4.73;;;;;;;;;;6289646;22;20779;-80
2023/09/06 23:05:24;;;;;;;6.77;4.20;;;;;;;;;;6290161;22;20692;-80
2023/09/06 23:07:53;;;;;;;8.20;4.20;;;;;;;;;;6292225;22;20405;-79
2023/09/06 23:10:23;;;;;;;5.13;4.10;;;;;;;;;;6295149;22;20513;-80
2023/09/06 23:12:52;;;;;;;6.53;3.93;;;;;;;;;;6293869;22;20436;-81
2023/09/06 23:15:23;;;;;;;6.60;4.33;;;;;;;;;;6294241;22;20660;-80
2023/09/06 23:17:52;;;;;;;7.07;3.53;;;;;;;;;;6287773;22;20457;-80
2023/09/06 23:20:28;;;;;;;4.80;3.90;;;;;;;;;;6288568;22;20423;-80
2023/09/06 23:22:58;;;;;;;5.67;4.03;;;;;;;;;;6288992;22;20466;-81
2023/09/06 23:25:36;;;;;;;10.07;3.90;;;;;;;;;;6289466;22;20412;-80
2023/09/06 23:28:20;;;;;;;5.50;3.63;;;;;;;;;;6282397;22;20423;-82
2023/09/06 23:30:53;;;;;;;4.53;3.70;;;;;;;;;;6296554;22;20420;-81
2023/09/06 23:33:31;;;;;;;8.80;6.73;;;;;;;;;;6294477;22;20426;-77
2023/09/06 23:36:00;;;;;;;11.00;6.53;;;;;;;;;;6294367;22;20372;-80
2023/09/06 23:38:28;;;;;;;7.37;5.43;;;;;;;;;;6294860;22;20443;-80
2023/09/06 23:40:56;;;;;;;8.23;5.00;;;;;;;;;;6294280;22;20436;-79
2023/09/06 23:43:25;;;;;;;6.87;4.90;;;;;;;;;;6295058;22;20471;-80
2023/09/06 23:45:56;;;;;;;7.07;5.17;;;;;;;;;;6291576;22;20453;-80
2023/09/06 23:48:24;;;;;;;8.10;4.60;;;;;;;;;;6294365;22;20389;-80
2023/09/06 23:50:52;;;;;;;7.37;5.57;;;;;;;;;;6291492;22;20401;-79
2023/09/06 23:53:21;;;;;;;6.70;5.40;;;;;;;;;;6290267;22;20415;-80
2023/09/06 23:55:50;;;;;;;7.80;5.20;;;;;;;;;;6290753;22;20451;-80
2023/09/06 23:58:17;;;;;;;12.67;6.47;;;;;;;;;;6292707;22;20444;-80
